sensor_id;sensor_type;location;lat;lon;timestamp;temperature;humidity
5128;DHT22;2582;48.770;9.190;2022-08-21T00:02:16;19.10;99.90
5128;DHT22;2582;48.770;9.190;2022-08-21T00:04:42;19.20;99.90
5128;DHT22;2582;48.770;9.190;2022-08-21T00:07:08;19.20;99.90
5128;DHT22;2582;48.770;9.190;2022-08-21T00:09:34;19.00;99.90
5128;DHT22;2582;48.770;9.190;2022-08-21T00:11:59;19.00;99.90
5128;DHT22;2582;48.770;9.190;2022-08-21T00:14:25;19.00;99.90
5128;DHT22;2582;48.770;9.190;2022-08-21T00:16:50;19.00;99.90
5128;DHT22;2582;48.770;9.190;2022-08-21T00:19:16;19.00;99.90
5128;DHT22;2582;48.770;9.190;2022-08-21T00:21:42;19.00;99.90
5128;DHT22;2582;48.770;9.190;2022-08-21T00:24:07;19.00;99.90
5128;DHT22;2582;48.770;9.190;2022-08-21T00:26:34;19.00;99.90
5128;DHT22;2582;48.770;9.190;2022-08-21T00:29:00;19.00;99.90
5128;DHT22;2582;48.770;9.190;2022-08-21T00:31:25;19.00;99.90
5128;DHT22;2582;48.770;9.190;2022-08-21T00:33:51;19.00;99.90
5128;DHT22;2582;48.770;9.190;2022-08-21T00:36:17;19.00;99.90
5128;DHT22;2582;48.770;9.190;2022-08-21T00:38:42;19.00;99.90
5128;DHT22;2582;48.770;9.190;2022-08-21T00:41:10;18.90;99.90
5128;DHT22;2582;48.770;9.190;2022-08-21T00:43:37;18.90;99.90
5128;DHT22;2582;48.770;9.190;2022-08-21T00:46:04;18.80;99.90
5128;DHT22;2582;48.770;9.190;2022-08-21T00:48:31;18.80;99.90
5128;DHT22;2582;48.770;9.190;2022-08-21T00:51:02;18.70;99.90
5128;DHT22;2582;48.770;9.190;2022-08-21T00:53:29;18.70;99.90
5128;DHT22;2582;48.770;9.190;2022-08-21T00:55:56;18.70;99.90
5128;DHT22;2582;48.770;9.190;2022-08-21T00:58:23;18.60;99.90
5128;DHT22;2582;48.770;9.190;2022-08-21T01:00:50;18.60;99.90
5128;DHT22;2582;48.770;9.190;2022-08-21T01:03:19;18.60;99.90
5128;DHT22;2582;48.770;9.190;2022-08-21T01:05:45;18.40;99.90
5128;DHT22;2582;48.770;9.190;2022-08-21T01:08:12;18.40;99.90
5128;DHT22;2582;48.770;9.190;2022-08-21T01:10:38;18.30;99.90
5128;DHT22;2582;48.770;9.190;2022-08-21T01:13:06;18.30;99.90
5128;DHT22;2582;48.770;9.190;2022-08-21T01:15:37;18.20;99.90
5128;DHT22;2582;48.770;9.190;2022-08-21T01:18:06;18.30;99.90
5128;DHT22;2582;48.770;9.190;2022-08-21T01:20:33;18.20;99.90
5128;DHT22;2582;48.770;9.190;2022-08-21T01:23:01;18.10;99.90
5128;DHT22;2582;48.770;9.190;2022-08-21T01:25:27;18.00;99.90
5128;DHT22;2582;48.770;9.190;2022-08-21T01:27:52;18.00;99.90
5128;DHT22;2582;48.770;9.190;2022-08-21T01:30:22;18.10;99.90
5128;DHT22;2582;48.770;9.190;2022-08-21T01:32:49;18.10;99.90
5128;DHT22;2582;48.770;9.190;2022-08-21T01:35:16;18.10;99.90
5128;DHT22;2582;48.770;9.190;2022-08-21T01:37:43;18.10;99.90
5128;DHT22;2582;48.770;9.190;2022-08-21T01:40:09;18.10;99.90
5128;DHT22;2582;48.770;9.190;2022-08-21T01:42:36;18.10;99.90
5128;DHT22;2582;48.770;9.190;2022-08-21T01:45:03;18.20;99.90
5128;DHT22;2582;48.770;9.190;2022-08-21T01:47:29;18.10;99.90
5128;DHT22;2582;48.770;9.190;2022-08-21T01:49:55;18.20;99.90
5128;DHT22;2582;48.770;9.190;2022-08-21T01:52:20;18.20;99.90
5128;DHT22;2582;48.770;9.190;2022-08-21T01:54:46;18.20;99.90
5128;DHT22;2582;48.770;9.190;2022-08-21T01:57:13;18.20;99.90
5128;DHT22;2582;48.770;9.190;2022-08-21T01:59:39;18.20;99.90
5128;DHT22;2582;48.770;9.190;2022-08-21T02:02:06;18.20;99.90
5128;DHT22;2582;48.770;9.190;2022-08-21T02:04:32;18.20;99.90
5128;DHT22;2582;48.770;9.190;2022-08-21T02:06:58;18.10;99.90
5128;DHT22;2582;48.770;9.190;2022-08-21T02:09:24;18.10;99.90
5128;DHT22;2582;48.770;9.190;2022-08-21T02:11:49;18.10;99.90
5128;DHT22;2582;48.770;9.190;2022-08-21T02:14:15;18.00;99.90
5128;DHT22;2582;48.770;9.190;2022-08-21T02:16:42;18.00;99.90
5128;DHT22;2582;48.770;9.190;2022-08-21T02:19:10;18.00;99.90
5128;DHT22;2582;48.770;9.190;2022-08-21T02:21:35;17.90;99.90
5128;DHT22;2582;48.770;9.190;2022-08-21T02:24:01;17.90;99.90
5128;DHT22;2582;48.770;9.190;2022-08-21T02:26:27;17.80;99.90
5128;DHT22;2582;48.770;9.190;2022-08-21T02:28:52;17.80;99.90
5128;DHT22;2582;48.770;9.190;2022-08-21T02:31:18;17.70;99.90
5128;DHT22;2582;48.770;9.190;2022-08-21T02:33:44;17.60;99.90
5128;DHT22;2582;48.770;9.190;2022-08-21T02:36:10;17.60;99.90
5128;DHT22;2582;48.770;9.190;2022-08-21T02:38:38;17.60;99.90
5128;DHT22;2582;48.770;9.190;2022-08-21T02:41:13;17.60;99.90
5128;DHT22;2582;48.770;9.190;2022-08-21T02:43:40;17.50;99.90
5128;DHT22;2582;48.770;9.190;2022-08-21T02:46:07;17.60;99.90
5128;DHT22;2582;48.770;9.190;2022-08-21T02:48:33;17.60;99.90
5128;DHT22;2582;48.770;9.190;2022-08-21T02:51:05;17.60;99.90
5128;DHT22;2582;48.770;9.190;2022-08-21T02:53:32;17.60;99.90
5128;DHT22;2582;48.770;9.190;2022-08-21T02:56:00;17.60;99.90
5128;DHT22;2582;48.770;9.190;2022-08-21T02:58:32;17.60;99.90
5128;DHT22;2582;48.770;9.190;2022-08-21T03:00:58;17.60;99.90
5128;DHT22;2582;48.770;9.190;2022-08-21T03:03:25;17.50;99.90
5128;DHT22;2582;48.770;9.190;2022-08-21T03:05:52;17.50;99.90
5128;DHT22;2582;48.770;9.190;2022-08-21T03:08:18;17.50;99.90
5128;DHT22;2582;48.770;9.190;2022-08-21T03:10:48;17.30;99.90
5128;DHT22;2582;48.770;9.190;2022-08-21T03:13:15;17.30;99.90
5128;DHT22;2582;48.770;9.190;2022-08-21T03:15:41;17.30;99.90
5128;DHT22;2582;48.770;9.190;2022-08-21T03:18:09;17.20;99.90
5128;DHT22;2582;48.770;9.190;2022-08-21T03:20:36;17.20;99.90
5128;DHT22;2582;48.770;9.190;2022-08-21T03:23:03;17.10;99.90
5128;DHT22;2582;48.770;9.190;2022-08-21T03:25:29;17.10;99.90
5128;DHT22;2582;48.770;9.190;2022-08-21T03:27:58;17.00;99.90
5128;DHT22;2582;48.770;9.190;2022-08-21T03:30:23;17.00;99.90
5128;DHT22;2582;48.770;9.190;2022-08-21T03:32:49;16.90;99.90
5128;DHT22;2582;48.770;9.190;2022-08-21T03:35:17;16.90;99.90
5128;DHT22;2582;48.770;9.190;2022-08-21T03:37:43;17.00;99.90
5128;DHT22;2582;48.770;9.190;2022-08-21T03:40:10;17.00;99.90
5128;DHT22;2582;48.770;9.190;2022-08-21T03:42:36;17.10;99.90
5128;DHT22;2582;48.770;9.190;2022-08-21T03:45:03;17.00;99.90
5128;DHT22;2582;48.770;9.190;2022-08-21T03:47:28;17.00;99.90
5128;DHT22;2582;48.770;9.190;2022-08-21T03:49:54;17.00;99.90
5128;DHT22;2582;48.770;9.190;2022-08-21T03:52:19;17.00;99.90
5128;DHT22;2582;48.770;9.190;2022-08-21T03:54:45;17.00;99.90
5128;DHT22;2582;48.770;9.190;2022-08-21T03:57:11;17.00;99.90
5128;DHT22;2582;48.770;9.190;2022-08-21T03:59:37;17.00;99.90
5128;DHT22;2582;48.770;9.190;2022-08-21T04:02:06;17.00;99.90
5128;DHT22;2582;48.770;9.190;2022-08-21T04:04:32;16.90;99.90
5128;DHT22;2582;48.770;9.190;2022-08-21T04:06:58;16.90;99.90
5128;DHT22;2582;48.770;9.190;2022-08-21T04:09:25;17.00;99.90
5128;DHT22;2582;48.770;9.190;2022-08-21T04:11:51;17.00;99.90
5128;DHT22;2582;48.770;9.190;2022-08-21T04:14:17;17.00;99.90
5128;DHT22;2582;48.770;9.190;2022-08-21T04:16:44;17.00;99.90
5128;DHT22;2582;48.770;9.190;2022-08-21T04:19:11;17.00;99.90
5128;DHT22;2582;48.770;9.190;2022-08-21T04:21:37;17.00;99.90
5128;DHT22;2582;48.770;9.190;2022-08-21T04:24:04;17.00;99.90
5128;DHT22;2582;48.770;9.190;2022-08-21T04:26:30;16.90;99.90
5128;DHT22;2582;48.770;9.190;2022-08-21T04:28:57;16.90;99.90
5128;DHT22;2582;48.770;9.190;2022-08-21T04:31:23;16.90;99.90
5128;DHT22;2582;48.770;9.190;2022-08-21T04:33:49;16.90;99.90
5128;DHT22;2582;48.770;9.190;2022-08-21T04:36:14;16.80;99.90
5128;DHT22;2582;48.770;9.190;2022-08-21T04:38:40;16.80;99.90
5128;DHT22;2582;48.770;9.190;2022-08-21T04:41:05;16.70;99.90
5128;DHT22;2582;48.770;9.190;2022-08-21T04:43:32;16.70;99.90
5128;DHT22;2582;48.770;9.190;2022-08-21T04:45:57;16.70;99.90
5128;DHT22;2582;48.770;9.190;2022-08-21T04:48:23;16.80;99.90
5128;DHT22;2582;48.770;9.190;2022-08-21T04:50:50;16.80;99.90
5128;DHT22;2582;48.770;9.190;2022-08-21T04:55:57;16.90;99.90
5128;DHT22;2582;48.770;9.190;2022-08-21T04:58:26;16.90;99.90
5128;DHT22;2582;48.770;9.190;2022-08-21T05:00:54;16.90;99.90
5128;DHT22;2582;48.770;9.190;2022-08-21T05:03:21;17.00;99.90
5128;DHT22;2582;48.770;9.190;2022-08-21T05:05:47;17.00;99.90
5128;DHT22;2582;48.770;9.190;2022-08-21T05:08:16;17.00;99.90
5128;DHT22;2582;48.770;9.190;2022-08-21T05:10:43;17.00;99.90
5128;DHT22;2582;48.770;9.190;2022-08-21T05:13:10;17.00;99.90
5128;DHT22;2582;48.770;9.190;2022-08-21T05:15:36;17.10;99.90
5128;DHT22;2582;48.770;9.190;2022-08-21T05:18:02;17.10;99.90
5128;DHT22;2582;48.770;9.190;2022-08-21T05:20:28;17.10;99.90
5128;DHT22;2582;48.770;9.190;2022-08-21T05:22:54;17.10;99.90
5128;DHT22;2582;48.770;9.190;2022-08-21T05:25:20;17.20;99.90
5128;DHT22;2582;48.770;9.190;2022-08-21T05:27:45;17.20;99.90
5128;DHT22;2582;48.770;9.190;2022-08-21T05:30:12;17.20;99.90
5128;DHT22;2582;48.770;9.190;2022-08-21T05:32:38;17.20;99.90
5128;DHT22;2582;48.770;9.190;2022-08-21T05:35:05;17.30;99.90
5128;DHT22;2582;48.770;9.190;2022-08-21T05:37:31;17.30;99.90
5128;DHT22;2582;48.770;9.190;2022-08-21T05:39:56;17.30;99.90
5128;DHT22;2582;48.770;9.190;2022-08-21T05:42:22;17.30;99.90
5128;DHT22;2582;48.770;9.190;2022-08-21T05:44:48;17.40;99.90
5128;DHT22;2582;48.770;9.190;2022-08-21T05:47:14;17.40;99.90
5128;DHT22;2582;48.770;9.190;2022-08-21T05:49:40;17.40;99.90
5128;DHT22;2582;48.770;9.190;2022-08-21T05:52:05;17.50;99.90
5128;DHT22;2582;48.770;9.190;2022-08-21T05:54:31;17.60;99.90
5128;DHT22;2582;48.770;9.190;2022-08-21T05:56:57;17.70;99.90
5128;DHT22;2582;48.770;9.190;2022-08-21T05:59:23;17.70;99.90
5128;DHT22;2582;48.770;9.190;2022-08-21T06:01:49;17.80;99.90
5128;DHT22;2582;48.770;9.190;2022-08-21T06:04:15;17.90;99.90
5128;DHT22;2582;48.770;9.190;2022-08-21T06:06:41;18.00;99.90
5128;DHT22;2582;48.770;9.190;2022-08-21T06:09:07;18.10;99.90
5128;DHT22;2582;48.770;9.190;2022-08-21T06:11:33;18.20;99.90
5128;DHT22;2582;48.770;9.190;2022-08-21T06:13:59;18.50;99.90
5128;DHT22;2582;48.770;9.190;2022-08-21T06:16:26;18.80;99.90
5128;DHT22;2582;48.770;9.190;2022-08-21T06:18:52;18.90;99.90
5128;DHT22;2582;48.770;9.190;2022-08-21T06:21:17;19.10;99.90
5128;DHT22;2582;48.770;9.190;2022-08-21T06:23:43;19.10;99.90
5128;DHT22;2582;48.770;9.190;2022-08-21T06:26:09;19.20;99.90
5128;DHT22;2582;48.770;9.190;2022-08-21T06:28:36;19.20;99.90
5128;DHT22;2582;48.770;9.190;2022-08-21T06:31:14;19.30;99.90
5128;DHT22;2582;48.770;9.190;2022-08-21T06:33:40;19.40;99.90
5128;DHT22;2582;48.770;9.190;2022-08-21T06:36:06;19.50;99.90
5128;DHT22;2582;48.770;9.190;2022-08-21T06:38:32;19.60;99.90
5128;DHT22;2582;48.770;9.190;2022-08-21T06:40:57;19.70;99.90
5128;DHT22;2582;48.770;9.190;2022-08-21T06:43:23;19.80;99.90
5128;DHT22;2582;48.770;9.190;2022-08-21T06:45:49;19.80;99.90
5128;DHT22;2582;48.770;9.190;2022-08-21T06:48:14;20.00;99.90
5128;DHT22;2582;48.770;9.190;2022-08-21T06:50:40;20.00;99.90
5128;DHT22;2582;48.770;9.190;2022-08-21T06:53:12;20.20;99.90
5128;DHT22;2582;48.770;9.190;2022-08-21T06:55:38;20.30;99.90
5128;DHT22;2582;48.770;9.190;2022-08-21T06:58:05;20.50;99.90
5128;DHT22;2582;48.770;9.190;2022-08-21T07:00:32;20.60;99.90
5128;DHT22;2582;48.770;9.190;2022-08-21T07:02:58;20.70;99.90
5128;DHT22;2582;48.770;9.190;2022-08-21T07:05:29;20.80;99.90
5128;DHT22;2582;48.770;9.190;2022-08-21T07:07:55;20.90;99.90
5128;DHT22;2582;48.770;9.190;2022-08-21T07:10:20;21.10;99.90
5128;DHT22;2582;48.770;9.190;2022-08-21T07:12:46;21.10;99.90
5128;DHT22;2582;48.770;9.190;2022-08-21T07:15:12;21.20;99.90
5128;DHT22;2582;48.770;9.190;2022-08-21T07:17:37;21.30;99.90
5128;DHT22;2582;48.770;9.190;2022-08-21T07:20:04;21.50;99.90
5128;DHT22;2582;48.770;9.190;2022-08-21T07:22:31;21.50;99.90
5128;DHT22;2582;48.770;9.190;2022-08-21T07:24:56;21.60;99.90
5128;DHT22;2582;48.770;9.190;2022-08-21T07:27:22;21.80;99.90
5128;DHT22;2582;48.770;9.190;2022-08-21T07:29:47;21.90;99.90
5128;DHT22;2582;48.770;9.190;2022-08-21T07:32:14;22.00;99.90
5128;DHT22;2582;48.770;9.190;2022-08-21T07:34:40;22.00;99.90
5128;DHT22;2582;48.770;9.190;2022-08-21T07:37:06;22.10;99.90
5128;DHT22;2582;48.770;9.190;2022-08-21T07:39:32;22.20;99.90
5128;DHT22;2582;48.770;9.190;2022-08-21T07:41:57;22.20;99.90
5128;DHT22;2582;48.770;9.190;2022-08-21T07:44:23;22.00;99.90
5128;DHT22;2582;48.770;9.190;2022-08-21T07:46:48;21.80;99.90
5128;DHT22;2582;48.770;9.190;2022-08-21T07:49:14;21.60;99.90
5128;DHT22;2582;48.770;9.190;2022-08-21T07:51:40;21.10;99.90
5128;DHT22;2582;48.770;9.190;2022-08-21T07:54:05;21.10;99.90
5128;DHT22;2582;48.770;9.190;2022-08-21T07:56:31;21.40;99.90
5128;DHT22;2582;48.770;9.190;2022-08-21T07:58:57;21.50;99.90
5128;DHT22;2582;48.770;9.190;2022-08-21T08:01:24;21.70;99.90
5128;DHT22;2582;48.770;9.190;2022-08-21T08:03:50;21.80;99.90
5128;DHT22;2582;48.770;9.190;2022-08-21T08:06:16;21.80;99.90
5128;DHT22;2582;48.770;9.190;2022-08-21T08:08:44;22.00;99.90
5128;DHT22;2582;48.770;9.190;2022-08-21T08:11:10;22.10;99.90
5128;DHT22;2582;48.770;9.190;2022-08-21T08:13:42;22.30;99.90
5128;DHT22;2582;48.770;9.190;2022-08-21T08:16:08;22.40;99.90
5128;DHT22;2582;48.770;9.190;2022-08-21T08:18:33;22.30;99.90
5128;DHT22;2582;48.770;9.190;2022-08-21T08:20:59;22.40;99.90
5128;DHT22;2582;48.770;9.190;2022-08-21T08:23:25;22.60;99.90
5128;DHT22;2582;48.770;9.190;2022-08-21T08:25:51;22.40;99.90
5128;DHT22;2582;48.770;9.190;2022-08-21T08:28:17;22.40;99.90
5128;DHT22;2582;48.770;9.190;2022-08-21T08:30:43;22.40;99.80
5128;DHT22;2582;48.770;9.190;2022-08-21T08:33:08;22.50;99.90
5128;DHT22;2582;48.770;9.190;2022-08-21T08:35:34;22.80;99.70
5128;DHT22;2582;48.770;9.190;2022-08-21T08:38:01;23.00;99.40
5128;DHT22;2582;48.770;9.190;2022-08-21T08:40:41;23.00;99.30
5128;DHT22;2582;48.770;9.190;2022-08-21T08:43:10;23.00;98.80
5128;DHT22;2582;48.770;9.190;2022-08-21T08:45:39;23.00;97.80
5128;DHT22;2582;48.770;9.190;2022-08-21T08:48:10;22.80;97.60
5128;DHT22;2582;48.770;9.190;2022-08-21T08:53:06;23.00;97.30
5128;DHT22;2582;48.770;9.190;2022-08-21T08:55:36;23.20;97.00
5128;DHT22;2582;48.770;9.190;2022-08-21T08:58:03;23.30;98.10
5128;DHT22;2582;48.770;9.190;2022-08-21T09:00:29;23.20;98.10
5128;DHT22;2582;48.770;9.190;2022-08-21T09:02:57;23.40;97.70
5128;DHT22;2582;48.770;9.190;2022-08-21T09:05:29;23.50;98.40
5128;DHT22;2582;48.770;9.190;2022-08-21T09:10:48;23.30;98.90
5128;DHT22;2582;48.770;9.190;2022-08-21T09:13:26;23.30;99.00
5128;DHT22;2582;48.770;9.190;2022-08-21T09:24:14;23.70;97.90
5128;DHT22;2582;48.770;9.190;2022-08-21T09:27:10;23.80;96.90
5128;DHT22;2582;48.770;9.190;2022-08-21T09:29:39;23.70;97.00
5128;DHT22;2582;48.770;9.190;2022-08-21T09:32:23;23.80;96.80
5128;DHT22;2582;48.770;9.190;2022-08-21T09:35:11;23.90;95.90
5128;DHT22;2582;48.770;9.190;2022-08-21T09:38:00;24.00;94.90
5128;DHT22;2582;48.770;9.190;2022-08-21T09:40:38;24.30;95.30
5128;DHT22;2582;48.770;9.190;2022-08-21T09:43:20;24.30;94.90
5128;DHT22;2582;48.770;9.190;2022-08-21T09:45:47;24.30;94.80
5128;DHT22;2582;48.770;9.190;2022-08-21T09:48:20;24.30;94.60
5128;DHT22;2582;48.770;9.190;2022-08-21T09:50:47;24.40;94.40
5128;DHT22;2582;48.770;9.190;2022-08-21T09:53:23;24.30;94.50
5128;DHT22;2582;48.770;9.190;2022-08-21T09:55:58;24.30;94.60
5128;DHT22;2582;48.770;9.190;2022-08-21T09:58:46;24.40;94.20
5128;DHT22;2582;48.770;9.190;2022-08-21T10:01:16;24.50;93.80
5128;DHT22;2582;48.770;9.190;2022-08-21T10:03:42;24.60;93.40
5128;DHT22;2582;48.770;9.190;2022-08-21T10:06:09;24.60;94.20
5128;DHT22;2582;48.770;9.190;2022-08-21T10:08:40;24.80;93.10
5128;DHT22;2582;48.770;9.190;2022-08-21T10:11:14;24.80;93.40
5128;DHT22;2582;48.770;9.190;2022-08-21T10:19:19;25.30;92.40
5128;DHT22;2582;48.770;9.190;2022-08-21T10:22:14;25.50;92.80
5128;DHT22;2582;48.770;9.190;2022-08-21T10:24:53;25.40;91.80
5128;DHT22;2582;48.770;9.190;2022-08-21T10:30:15;25.10;92.10
5128;DHT22;2582;48.770;9.190;2022-08-21T10:44:15;25.60;90.60
5128;DHT22;2582;48.770;9.190;2022-08-21T10:47:01;25.70;90.40
5128;DHT22;2582;48.770;9.190;2022-08-21T10:55:30;25.80;90.30
5128;DHT22;2582;48.770;9.190;2022-08-21T10:58:01;26.20;90.00
5128;DHT22;2582;48.770;9.190;2022-08-21T11:00:38;27.30;87.00
5128;DHT22;2582;48.770;9.190;2022-08-21T11:03:16;27.90;82.60
5128;DHT22;2582;48.770;9.190;2022-08-21T11:05:49;28.10;82.00
5128;DHT22;2582;48.770;9.190;2022-08-21T11:11:22;29.10;77.80
5128;DHT22;2582;48.770;9.190;2022-08-21T11:14:03;29.20;78.00
5128;DHT22;2582;48.770;9.190;2022-08-21T11:16:36;30.20;74.20
5128;DHT22;2582;48.770;9.190;2022-08-21T11:21:48;31.70;67.80
5128;DHT22;2582;48.770;9.190;2022-08-21T11:25:06;32.10;64.10
5128;DHT22;2582;48.770;9.190;2022-08-21T11:29:54;30.20;67.40
5128;DHT22;2582;48.770;9.190;2022-08-21T11:38:06;32.30;62.10
5128;DHT22;2582;48.770;9.190;2022-08-21T11:43:44;31.60;61.00
5128;DHT22;2582;48.770;9.190;2022-08-21T11:52:07;35.90;52.50
5128;DHT22;2582;48.770;9.190;2022-08-21T11:54:42;36.30;50.60
5128;DHT22;2582;48.770;9.190;2022-08-21T11:57:20;35.60;50.60
5128;DHT22;2582;48.770;9.190;2022-08-21T12:02:21;34.70;50.80
5128;DHT22;2582;48.770;9.190;2022-08-21T12:04:55;35.60;49.50
5128;DHT22;2582;48.770;9.190;2022-08-21T12:07:36;36.10;48.30
5128;DHT22;2582;48.770;9.190;2022-08-21T12:10:05;35.50;47.40
5128;DHT22;2582;48.770;9.190;2022-08-21T12:12:33;35.80;48.10
5128;DHT22;2582;48.770;9.190;2022-08-21T12:18:00;35.10;49.30
5128;DHT22;2582;48.770;9.190;2022-08-21T12:20:45;36.60;46.20
5128;DHT22;2582;48.770;9.190;2022-08-21T12:23:33;38.10;44.90
5128;DHT22;2582;48.770;9.190;2022-08-21T12:28:44;34.60;47.60
5128;DHT22;2582;48.770;9.190;2022-08-21T12:31:25;33.70;48.20
5128;DHT22;2582;48.770;9.190;2022-08-21T12:33:58;33.40;49.00
5128;DHT22;2582;48.770;9.190;2022-08-21T12:36:30;31.60;51.40
5128;DHT22;2582;48.770;9.190;2022-08-21T12:39:03;30.90;53.20
5128;DHT22;2582;48.770;9.190;2022-08-21T12:44:12;30.50;55.30
5128;DHT22;2582;48.770;9.190;2022-08-21T12:46:51;30.70;53.80
5128;DHT22;2582;48.770;9.190;2022-08-21T12:49:27;31.40;53.50
5128;DHT22;2582;48.770;9.190;2022-08-21T12:54:41;33.20;50.10
5128;DHT22;2582;48.770;9.190;2022-08-21T12:57:08;33.90;48.30
5128;DHT22;2582;48.770;9.190;2022-08-21T12:59:38;34.10;48.60
5128;DHT22;2582;48.770;9.190;2022-08-21T13:02:16;33.50;49.00
5128;DHT22;2582;48.770;9.190;2022-08-21T13:04:43;33.00;49.50
5128;DHT22;2582;48.770;9.190;2022-08-21T13:07:12;34.60;48.40
5128;DHT22;2582;48.770;9.190;2022-08-21T13:10:20;36.30;46.00
5128;DHT22;2582;48.770;9.190;2022-08-21T13:12:47;35.90;44.40
5128;DHT22;2582;48.770;9.190;2022-08-21T13:15:14;35.10;46.00
5128;DHT22;2582;48.770;9.190;2022-08-21T13:17:44;35.20;46.00
5128;DHT22;2582;48.770;9.190;2022-08-21T13:20:23;36.60;44.20
5128;DHT22;2582;48.770;9.190;2022-08-21T13:22:49;35.70;45.10
5128;DHT22;2582;48.770;9.190;2022-08-21T13:25:18;35.10;44.80
5128;DHT22;2582;48.770;9.190;2022-08-21T13:28:06;33.60;46.90
5128;DHT22;2582;48.770;9.190;2022-08-21T13:30:33;33.40;48.40
5128;DHT22;2582;48.770;9.190;2022-08-21T13:33:01;33.90;47.50
5128;DHT22;2582;48.770;9.190;2022-08-21T13:35:36;33.60;47.30
5128;DHT22;2582;48.770;9.190;2022-08-21T13:38:03;35.10;45.70
5128;DHT22;2582;48.770;9.190;2022-08-21T13:40:36;34.30;46.30
5128;DHT22;2582;48.770;9.190;2022-08-21T13:43:11;34.20;46.30
5128;DHT22;2582;48.770;9.190;2022-08-21T13:45:37;35.50;44.30
5128;DHT22;2582;48.770;9.190;2022-08-21T13:48:03;36.40;43.60
5128;DHT22;2582;48.770;9.190;2022-08-21T13:50:32;36.40;43.80
5128;DHT22;2582;48.770;9.190;2022-08-21T13:53:05;37.50;42.20
5128;DHT22;2582;48.770;9.190;2022-08-21T13:55:37;37.30;41.30
5128;DHT22;2582;48.770;9.190;2022-08-21T13:58:04;36.40;43.00
5128;DHT22;2582;48.770;9.190;2022-08-21T14:00:32;36.80;42.50
5128;DHT22;2582;48.770;9.190;2022-08-21T14:03:06;37.00;41.70
5128;DHT22;2582;48.770;9.190;2022-08-21T14:05:36;37.00;41.80
5128;DHT22;2582;48.770;9.190;2022-08-21T14:08:10;35.10;43.10
5128;DHT22;2582;48.770;9.190;2022-08-21T14:10:42;34.40;44.70
5128;DHT22;2582;48.770;9.190;2022-08-21T14:13:33;34.50;44.40
5128;DHT22;2582;48.770;9.190;2022-08-21T14:16:02;34.00;44.80
5128;DHT22;2582;48.770;9.190;2022-08-21T14:18:28;35.80;43.70
5128;DHT22;2582;48.770;9.190;2022-08-21T14:21:05;37.50;41.20
5128;DHT22;2582;48.770;9.190;2022-08-21T14:23:31;38.20;39.60
5128;DHT22;2582;48.770;9.190;2022-08-21T14:26:00;36.70;40.80
5128;DHT22;2582;48.770;9.190;2022-08-21T14:28:29;37.10;41.20
5128;DHT22;2582;48.770;9.190;2022-08-21T14:30:57;36.80;41.30
5128;DHT22;2582;48.770;9.190;2022-08-21T14:33:28;37.80;40.30
5128;DHT22;2582;48.770;9.190;2022-08-21T14:35:54;38.20;39.40
5128;DHT22;2582;48.770;9.190;2022-08-21T14:38:24;38.40;39.20
5128;DHT22;2582;48.770;9.190;2022-08-21T14:40:55;39.30;38.20
5128;DHT22;2582;48.770;9.190;2022-08-21T14:43:22;36.00;40.50
5128;DHT22;2582;48.770;9.190;2022-08-21T14:45:47;35.80;41.60
5128;DHT22;2582;48.770;9.190;2022-08-21T14:48:13;34.80;42.60
5128;DHT22;2582;48.770;9.190;2022-08-21T14:50:39;34.40;43.50
5128;DHT22;2582;48.770;9.190;2022-08-21T14:53:07;34.20;43.60
5128;DHT22;2582;48.770;9.190;2022-08-21T14:55:33;34.30;43.80
5128;DHT22;2582;48.770;9.190;2022-08-21T14:58:22;35.80;42.10
5128;DHT22;2582;48.770;9.190;2022-08-21T15:00:49;37.00;40.70
5128;DHT22;2582;48.770;9.190;2022-08-21T15:03:15;37.50;39.80
5128;DHT22;2582;48.770;9.190;2022-08-21T15:05:41;37.50;39.50
5128;DHT22;2582;48.770;9.190;2022-08-21T15:08:06;38.80;38.10
5128;DHT22;2582;48.770;9.190;2022-08-21T15:10:33;39.90;37.60
5128;DHT22;2582;48.770;9.190;2022-08-21T15:13:00;40.60;36.60
5128;DHT22;2582;48.770;9.190;2022-08-21T15:15:26;39.90;36.00
5128;DHT22;2582;48.770;9.190;2022-08-21T15:17:52;39.30;37.50
5128;DHT22;2582;48.770;9.190;2022-08-21T15:20:17;37.80;38.20
5128;DHT22;2582;48.770;9.190;2022-08-21T15:22:43;37.30;37.90
5128;DHT22;2582;48.770;9.190;2022-08-21T15:25:08;36.10;40.50
5128;DHT22;2582;48.770;9.190;2022-08-21T15:27:35;35.20;41.50
5128;DHT22;2582;48.770;9.190;2022-08-21T15:30:03;34.20;42.10
5128;DHT22;2582;48.770;9.190;2022-08-21T15:32:29;33.80;43.50
5128;DHT22;2582;48.770;9.190;2022-08-21T15:34:57;32.90;44.10
5128;DHT22;2582;48.770;9.190;2022-08-21T15:37:23;32.80;44.20
5128;DHT22;2582;48.770;9.190;2022-08-21T15:39:50;33.70;42.80
5128;DHT22;2582;48.770;9.190;2022-08-21T15:42:17;34.70;42.00
5128;DHT22;2582;48.770;9.190;2022-08-21T15:44:43;35.50;40.50
5128;DHT22;2582;48.770;9.190;2022-08-21T15:47:13;34.80;40.90
5128;DHT22;2582;48.770;9.190;2022-08-21T15:49:40;34.50;41.50
5128;DHT22;2582;48.770;9.190;2022-08-21T15:52:10;33.90;42.00
5128;DHT22;2582;48.770;9.190;2022-08-21T15:54:36;33.60;42.60
5128;DHT22;2582;48.770;9.190;2022-08-21T15:57:01;34.50;41.50
5128;DHT22;2582;48.770;9.190;2022-08-21T15:59:27;33.50;42.70
5128;DHT22;2582;48.770;9.190;2022-08-21T16:01:59;33.00;43.30
5128;DHT22;2582;48.770;9.190;2022-08-21T16:04:27;32.10;44.30
5128;DHT22;2582;48.770;9.190;2022-08-21T16:06:53;31.90;45.50
5128;DHT22;2582;48.770;9.190;2022-08-21T16:09:19;32.20;45.20
5128;DHT22;2582;48.770;9.190;2022-08-21T16:11:45;32.30;45.10
5128;DHT22;2582;48.770;9.190;2022-08-21T16:14:13;32.10;46.30
5128;DHT22;2582;48.770;9.190;2022-08-21T16:16:40;31.80;46.90
5128;DHT22;2582;48.770;9.190;2022-08-21T16:19:06;31.40;45.80
5128;DHT22;2582;48.770;9.190;2022-08-21T16:21:33;31.10;46.00
5128;DHT22;2582;48.770;9.190;2022-08-21T16:23:58;30.20;47.10
5128;DHT22;2582;48.770;9.190;2022-08-21T16:26:24;30.40;47.30
5128;DHT22;2582;48.770;9.190;2022-08-21T16:28:53;30.40;47.10
5128;DHT22;2582;48.770;9.190;2022-08-21T16:31:22;29.70;48.40
5128;DHT22;2582;48.770;9.190;2022-08-21T16:33:51;29.60;48.90
5128;DHT22;2582;48.770;9.190;2022-08-21T16:36:17;29.90;48.60
5128;DHT22;2582;48.770;9.190;2022-08-21T16:38:43;29.60;48.50
5128;DHT22;2582;48.770;9.190;2022-08-21T16:41:15;29.70;48.80
5128;DHT22;2582;48.770;9.190;2022-08-21T16:43:42;29.90;48.60
5128;DHT22;2582;48.770;9.190;2022-08-21T16:46:10;29.50;48.00
5128;DHT22;2582;48.770;9.190;2022-08-21T16:48:37;29.30;48.90
5128;DHT22;2582;48.770;9.190;2022-08-21T16:51:03;29.30;48.50
5128;DHT22;2582;48.770;9.190;2022-08-21T16:53:29;29.10;48.40
5128;DHT22;2582;48.770;9.190;2022-08-21T16:55:55;29.10;48.50
5128;DHT22;2582;48.770;9.190;2022-08-21T16:58:31;28.80;49.00
5128;DHT22;2582;48.770;9.190;2022-08-21T17:00:58;28.70;49.60
5128;DHT22;2582;48.770;9.190;2022-08-21T17:03:32;28.80;49.50
5128;DHT22;2582;48.770;9.190;2022-08-21T17:06:00;28.70;49.90
5128;DHT22;2582;48.770;9.190;2022-08-21T17:08:26;28.60;49.50
5128;DHT22;2582;48.770;9.190;2022-08-21T17:10:52;28.60;49.70
5128;DHT22;2582;48.770;9.190;2022-08-21T17:13:18;28.80;49.60
5128;DHT22;2582;48.770;9.190;2022-08-21T17:15:44;29.10;49.50
5128;DHT22;2582;48.770;9.190;2022-08-21T17:18:13;28.90;49.80
5128;DHT22;2582;48.770;9.190;2022-08-21T17:20:39;28.60;49.40
5128;DHT22;2582;48.770;9.190;2022-08-21T17:23:05;28.60;49.80
5128;DHT22;2582;48.770;9.190;2022-08-21T17:25:31;28.50;50.00
5128;DHT22;2582;48.770;9.190;2022-08-21T17:27:57;28.70;49.80
5128;DHT22;2582;48.770;9.190;2022-08-21T17:30:24;28.90;49.40